Coniston, Canada
Current Conditions -  °F | °C
As of 10:13 AM on Friday 28 Nov 2014 (Local Time) from CYSB Reporting Station
Broken Clouds Broken Clouds  
Wind Chill: -26°   Ceiling: 20000
Heat Index: -19°   Visibility: 15mi
Dew Point: -22°   Wind: 6mph
Humidity: 78%   Direction: 290°WNW
Pressure: 30.18"   Gusts: NA
Location:  46.49°N, 80.85°W
Report Text: CYSB 281513Z 29005KT 15SM SCT004 BKN200 M19/M22 A3018 RMK SF3CI2 SLP252
Loading
Personal Weather Stations






























Interactive Weather Map New forecast layout! Learn more

10-Day Weather Forecast

Advertisements
Track Severe Weather on mobile